Time;durP1;ratioP1;P1;durP2;ratioP2;P2;SDS_P1;SDS_P2;PMS_P1;PMS_P2;Temp;Humidity;BMP_temperature;BMP_pressure;BME280_temperature;BME280_humidity;BME280_pressure;Samples;Min_cycle;Max_cycle;Signal;HPM_P1;HPM_P2
2021/01/01 00:01:43;;;;;;;21.35;12.68;;;3.30;99.90;;;;;;4966518;28;20034;-75
2021/01/01 00:04:09;;;;;;;16.55;8.88;;;3.30;99.90;;;;;;4965554;28;20323;-76
2021/01/01 00:06:35;;;;;;;14.93;8.10;;;3.30;99.90;;;;;;4966525;28;20053;-76
2021/01/01 00:09:01;;;;;;;20.77;12.02;;;3.30;99.90;;;;;;4966483;28;20031;-76
2021/01/01 00:11:27;;;;;;;26.52;14.93;;;3.40;99.90;;;;;;4966897;28;20430;-75
2021/01/01 00:13:53;;;;;;;29.77;16.35;;;3.40;99.90;;;;;;4966908;28;20070;-76
2021/01/01 00:16:19;;;;;;;20.13;13.52;;;3.40;99.90;;;;;;4967517;28;20043;-76
2021/01/01 00:18:45;;;;;;;22.30;13.85;;;3.30;99.90;;;;;;4967309;28;20053;-76
2021/01/01 00:21:11;;;;;;;20.83;11.85;;;3.40;99.90;;;;;;4967504;28;20047;-76
2021/01/01 00:23:37;;;;;;;20.55;12.27;;;3.40;99.90;;;;;;4966584;28;20035;-76
2021/01/01 00:26:13;;;;;;;19.85;9.68;;;3.30;99.90;;;;;;4967237;28;20363;-76
2021/01/01 00:28:40;;;;;;;15.95;8.55;;;3.30;99.90;;;;;;4965981;28;20494;-76
2021/01/01 00:31:06;;;;;;;17.10;9.85;;;3.30;99.90;;;;;;4967042;28;20030;-75
2021/01/01 00:33:32;;;;;;;17.95;11.10;;;3.30;99.90;;;;;;4966883;28;20030;-76
2021/01/01 00:35:57;;;;;;;15.00;9.73;;;3.30;99.90;;;;;;4966831;28;20416;-75
2021/01/01 00:38:23;;;;;;;18.85;10.35;;;3.30;99.90;;;;;;4967257;28;20030;-76
2021/01/01 00:40:49;;;;;;;42.50;25.73;;;3.30;99.90;;;;;;4966486;28;20027;-75
2021/01/01 00:43:14;;;;;;;25.10;16.23;;;3.40;99.90;;;;;;4966383;28;20495;-76
2021/01/01 00:45:40;;;;;;;24.00;14.65;;;3.40;99.90;;;;;;4967095;28;20636;-76
2021/01/01 00:48:06;;;;;;;32.10;20.35;;;3.40;99.90;;;;;;4962503;28;20145;-75
2021/01/01 00:50:31;;;;;;;23.67;13.52;;;3.40;99.90;;;;;;4947544;29;20042;-76
2021/01/01 00:52:57;;;;;;;22.40;13.10;;;3.50;99.90;;;;;;4947393;28;20154;-76
2021/01/01 00:55:23;;;;;;;13.13;7.70;;;3.40;99.90;;;;;;4966393;28;20402;-76
2021/01/01 00:57:48;;;;;;;14.90;9.05;;;3.40;99.90;;;;;;4966844;28;20154;-76
2021/01/01 01:00:14;;;;;;;20.90;13.20;;;3.40;99.90;;;;;;4965006;28;20054;-76
2021/01/01 01:02:40;;;;;;;21.25;14.35;;;3.40;99.90;;;;;;4964657;28;20061;-75
2021/01/01 01:05:06;;;;;;;17.55;10.30;;;3.50;99.90;;;;;;4964083;28;20454;-76
2021/01/01 01:07:32;;;;;;;10.38;4.55;;;3.40;99.90;;;;;;4965052;28;20030;-76
2021/01/01 01:09:57;;;;;;;11.25;6.18;;;3.40;99.90;;;;;;4963681;28;20081;-75
2021/01/01 01:12:23;;;;;;;12.02;5.93;;;3.40;99.90;;;;;;4963734;28;20888;-75
2021/01/01 01:14:49;;;;;;;20.77;12.65;;;3.30;99.90;;;;;;4964751;28;20027;-76
2021/01/01 01:17:14;;;;;;;15.43;10.30;;;3.40;99.90;;;;;;4963815;28;20046;-76
2021/01/01 01:19:41;;;;;;;19.98;12.38;;;3.40;99.90;;;;;;4963907;28;20027;-76
2021/01/01 01:22:06;;;;;;;31.65;19.58;;;3.40;99.90;;;;;;4963667;28;20030;-75
2021/01/01 01:24:32;;;;;;;20.25;13.77;;;3.40;99.90;;;;;;4965303;28;20083;-76
2021/01/01 01:26:58;;;;;;;14.65;8.55;;;3.40;99.90;;;;;;4965171;28;20035;-75
2021/01/01 01:29:23;;;;;;;16.48;9.60;;;3.30;99.90;;;;;;4966189;28;20429;-75
2021/01/01 01:31:49;;;;;;;15.23;8.77;;;3.40;99.90;;;;;;4965260;28;20035;-76
2021/01/01 01:34:15;;;;;;;14.70;8.57;;;3.40;99.90;;;;;;4965724;28;20082;-75
2021/01/01 01:36:40;;;;;;;16.55;9.15;;;3.40;99.90;;;;;;4965499;28;20033;-75
2021/01/01 01:39:06;;;;;;;21.38;12.90;;;3.30;99.90;;;;;;4965881;28;20041;-75
2021/01/01 01:41:32;;;;;;;20.33;9.90;;;3.30;99.90;;;;;;4965993;28;20038;-76
2021/01/01 01:43:57;;;;;;;8.27;4.85;;;3.30;99.90;;;;;;4965901;28;20486;-76
2021/01/01 01:46:34;;;;;;;10.70;4.65;;;3.30;99.90;;;;;;4966245;28;20462;-76
2021/01/01 01:49:00;;;;;;;8.60;4.97;;;3.30;99.90;;;;;;4966517;28;20039;-75
2021/01/01 01:51:26;;;;;;;9.00;5.18;;;3.40;99.90;;;;;;4966669;28;20029;-76
2021/01/01 01:53:52;;;;;;;9.90;5.43;;;3.40;99.90;;;;;;4965267;28;20154;-76
2021/01/01 01:56:18;;;;;;;11.77;6.63;;;3.30;99.90;;;;;;4965827;28;20137;-76
2021/01/01 01:58:46;;;;;;;13.02;7.80;;;3.40;99.90;;;;;;4965100;28;20041;-76
2021/01/01 02:01:12;;;;;;;13.18;8.23;;;3.40;99.90;;;;;;4965373;28;20034;-76
2021/01/01 02:03:38;;;;;;;16.98;11.02;;;3.40;99.90;;;;;;4965023;28;20513;-76
2021/01/01 02:06:04;;;;;;;17.25;10.63;;;3.40;99.90;;;;;;4966048;28;20105;-75
2021/01/01 02:08:29;;;;;;;14.25;9.45;;;3.50;99.90;;;;;;4965324;28;20136;-75
2021/01/01 02:10:57;;;;;;;14.13;8.20;;;3.40;99.90;;;;;;4966181;28;20046;-76
2021/01/01 02:13:24;;;;;;;15.25;8.65;;;3.40;99.90;;;;;;4965033;28;20130;-76
2021/01/01 02:15:50;;;;;;;12.45;8.07;;;3.40;99.90;;;;;;4959503;28;20506;-76
2021/01/01 02:18:38;;;;;;;13.70;9.15;;;3.40;99.90;;;;;;4965446;28;20058;-76
2021/01/01 02:21:05;;;;;;;14.52;8.45;;;3.40;99.90;;;;;;4965895;28;20081;-76
2021/01/01 02:23:32;;;;;;;13.32;8.23;;;3.40;99.90;;;;;;4964583;28;20097;-75
2021/01/01 02:25:58;;;;;;;15.43;9.35;;;3.40;99.90;;;;;;4966188;28;20022;-76
2021/01/01 02:28:23;;;;;;;15.35;9.30;;;3.40;99.90;;;;;;4965436;28;20085;-75
2021/01/01 02:30:50;;;;;;;14.52;8.60;;;3.30;99.90;;;;;;4966088;28;20042;-75
2021/01/01 02:33:16;;;;;;;16.50;9.43;;;3.20;99.90;;;;;;4968529;28;20034;-76
2021/01/01 02:35:42;;;;;;;12.20;7.88;;;3.20;99.90;;;;;;4969091;28;20050;-76
2021/01/01 02:38:08;;;;;;;15.57;9.05;;;3.30;99.90;;;;;;4968617;28;20037;-76
2021/01/01 02:40:34;;;;;;;13.95;9.88;;;3.40;99.90;;;;;;4969296;28;20560;-76
2021/01/01 02:43:00;;;;;;;14.20;9.40;;;3.40;99.90;;;;;;4968460;28;20142;-76
2021/01/01 02:45:25;;;;;;;22.75;13.80;;;3.30;99.90;;;;;;4968783;28;20035;-75
2021/01/01 02:47:51;;;;;;;19.42;11.88;;;3.40;99.90;;;;;;4974336;28;20018;-76
2021/01/01 02:50:17;;;;;;;12.75;7.82;;;3.40;99.90;;;;;;4988274;28;20449;-75
2021/01/01 02:52:44;;;;;;;12.32;7.00;;;3.40;99.90;;;;;;4978075;28;20110;-76
2021/01/01 02:55:10;;;;;;;10.95;6.05;;;3.40;99.90;;;;;;4969228;28;20486;-75
2021/01/01 02:57:35;;;;;;;11.65;6.53;;;3.30;99.90;;;;;;4968211;28;20481;-75
2021/01/01 03:00:02;;;;;;;8.60;4.82;;;3.40;99.90;;;;;;4968900;28;20082;-76
2021/01/01 03:02:28;;;;;;;9.35;5.65;;;3.30;99.90;;;;;;4967659;28;20390;-75
2021/01/01 03:04:53;;;;;;;11.35;6.97;;;3.40;99.90;;;;;;4968900;28;20475;-75
2021/01/01 03:07:19;;;;;;;8.02;3.95;;;3.40;99.90;;;;;;4967724;28;20023;-76
2021/01/01 03:09:44;;;;;;;6.90;3.90;;;3.30;99.90;;;;;;4968784;28;20496;-76
2021/01/01 03:12:10;;;;;;;7.75;3.40;;;3.20;99.90;;;;;;4968522;28;20035;-75
2021/01/01 03:14:36;;;;;;;8.07;4.00;;;3.10;99.90;;;;;;4968345;28;20402;-76
2021/01/01 03:17:01;;;;;;;8.55;4.03;;;3.20;99.90;;;;;;4968625;28;20073;-76
2021/01/01 03:19:27;;;;;;;8.25;4.50;;;3.10;99.90;;;;;;4982868;28;20057;-76
2021/01/01 03:21:52;;;;;;;9.43;5.50;;;3.20;99.90;;;;;;4987650;28;20072;-75
2021/01/01 03:24:18;;;;;;;9.95;5.93;;;3.30;99.90;;;;;;4973353;28;20841;-76
2021/01/01 03:26:44;;;;;;;10.65;4.90;;;3.20;99.90;;;;;;4968289;28;20105;-76
2021/01/01 03:29:09;;;;;;;8.65;4.85;;;3.30;99.90;;;;;;4967431;28;20125;-75
2021/01/01 03:31:35;;;;;;;9.60;5.30;;;3.30;99.90;;;;;;4968474;28;20027;-75
2021/01/01 03:34:00;;;;;;;9.55;5.53;;;3.20;99.90;;;;;;4966882;28;20062;-76
2021/01/01 03:36:26;;;;;;;9.43;4.43;;;3.20;99.90;;;;;;4967817;28;20035;-76
2021/01/01 03:38:52;;;;;;;7.55;4.25;;;3.20;99.90;;;;;;4967945;28;20047;-76
2021/01/01 03:41:18;;;;;;;8.20;3.90;;;3.20;99.90;;;;;;4967127;28;20074;-75
2021/01/01 03:43:44;;;;;;;6.75;3.72;;;3.20;99.90;;;;;;4967294;28;20454;-76
2021/01/01 03:46:10;;;;;;;7.68;4.18;;;3.20;99.90;;;;;;4967188;28;20070;-76
2021/01/01 03:48:35;;;;;;;8.05;4.40;;;3.10;99.90;;;;;;4967809;28;20137;-76
2021/01/01 03:51:01;;;;;;;7.72;3.72;;;3.00;99.90;;;;;;4967274;28;20422;-75
2021/01/01 03:53:27;;;;;;;7.13;3.70;;;3.00;99.90;;;;;;4966707;28;20038;-76
2021/01/01 03:55:52;;;;;;;9.63;5.38;;;3.10;99.90;;;;;;4967621;28;20046;-76
2021/01/01 03:58:18;;;;;;;8.05;4.03;;;3.00;99.90;;;;;;4967040;28;20033;-76
2021/01/01 04:00:43;;;;;;;7.57;4.13;;;3.00;99.90;;;;;;4966302;28;20097;-76
2021/01/01 04:03:09;;;;;;;7.93;4.45;;;3.00;99.90;;;;;;4966088;28;20456;-76
2021/01/01 04:05:35;;;;;;;10.68;5.88;;;2.90;99.90;;;;;;4965745;28;20035;-76
2021/01/01 04:08:00;;;;;;;8.35;4.95;;;2.90;99.90;;;;;;4965816;28;20027;-75
2021/01/01 04:10:26;;;;;;;8.55;4.97;;;2.80;99.90;;;;;;4965125;28;20035;-75
2021/01/01 04:12:51;;;;;;;6.97;4.38;;;2.60;99.90;;;;;;4966367;28;20375;-75
2021/01/01 04:15:17;;;;;;;6.10;3.30;;;2.80;99.90;;;;;;4966115;28;20430;-77
2021/01/01 04:17:43;;;;;;;8.63;4.20;;;2.60;99.90;;;;;;4967311;28;20049;-75
2021/01/01 04:20:09;;;;;;;10.60;4.85;;;2.60;99.90;;;;;;4967001;28;20146;-75
2021/01/01 04:22:34;;;;;;;13.05;5.72;;;2.60;99.90;;;;;;4966763;28;20077;-75
2021/01/01 04:25:00;;;;;;;16.45;6.80;;;2.50;99.90;;;;;;4966205;28;20035;-75
2021/01/01 04:27:26;;;;;;;10.23;5.28;;;2.40;99.90;;;;;;4966824;28;20054;-75
2021/01/01 04:29:51;;;;;;;12.20;6.35;;;2.30;99.90;;;;;;4966948;28;20038;-75
2021/01/01 04:32:17;;;;;;;9.43;4.40;;;2.30;99.90;;;;;;4967454;28;20034;-75
2021/01/01 04:34:42;;;;;;;10.00;4.38;;;2.30;99.90;;;;;;4967128;28;20063;-75
2021/01/01 04:37:08;;;;;;;9.80;5.05;;;2.40;99.90;;;;;;4966169;28;20026;-75
2021/01/01 04:39:34;;;;;;;8.73;4.40;;;2.40;99.90;;;;;;4967852;28;20043;-75
2021/01/01 04:42:02;;;;;;;8.15;4.22;;;2.30;99.90;;;;;;4968075;28;20026;-76
2021/01/01 04:44:27;;;;;;;7.18;4.32;;;2.30;99.90;;;;;;4967670;28;20054;-75
2021/01/01 04:46:53;;;;;;;10.57;4.97;;;2.20;99.90;;;;;;4965497;28;20058;-75
2021/01/01 04:49:19;;;;;;;8.15;4.20;;;2.20;99.90;;;;;;4966508;28;20070;-76
2021/01/01 04:51:45;;;;;;;10.32;4.47;;;2.30;99.90;;;;;;4967480;28;20023;-75
2021/01/01 04:54:11;;;;;;;8.57;4.07;;;2.30;99.90;;;;;;4966667;28;20034;-76
2021/01/01 04:56:44;;;;;;;11.48;6.07;;;2.30;99.90;;;;;;4967837;28;20486;-76
2021/01/01 04:59:10;;;;;;;9.13;5.40;;;2.30;99.90;;;;;;4967276;28;20038;-76
2021/01/01 05:01:41;;;;;;;11.32;6.38;;;2.40;99.90;;;;;;4963813;28;20042;-75
2021/01/01 05:04:06;;;;;;;8.43;4.85;;;2.30;99.90;;;;;;4967675;28;20035;-76
2021/01/01 05:06:34;;;;;;;9.70;5.88;;;2.30;99.90;;;;;;4967372;28;20481;-76
2021/01/01 05:09:00;;;;;;;10.65;7.05;;;2.30;99.90;;;;;;4967633;28;20044;-76
2021/01/01 05:11:26;;;;;;;11.13;6.63;;;2.30;99.90;;;;;;4967380;28;20058;-77
2021/01/01 05:13:57;;;;;;;14.27;6.35;;;2.20;99.90;;;;;;4965545;28;20069;-76
2021/01/01 05:16:23;;;;;;;7.60;4.90;;;2.20;99.90;;;;;;4966878;28;20107;-76
2021/01/01 05:18:49;;;;;;;13.18;7.43;;;2.20;99.90;;;;;;4967612;28;20038;-76
2021/01/01 05:21:25;;;;;;;11.13;6.93;;;2.20;99.90;;;;;;4966612;28;20081;-75
2021/01/01 05:23:55;;;;;;;9.82;6.32;;;2.20;99.90;;;;;;4965366;28;20030;-76
2021/01/01 05:26:26;;;;;;;9.45;6.13;;;2.10;99.90;;;;;;4967099;28;20015;-76
2021/01/01 05:29:02;;;;;;;9.73;5.80;;;2.20;99.90;;;;;;4967282;28;20034;-76
2021/01/01 05:31:29;;;;;;;9.00;5.50;;;2.20;99.90;;;;;;4967199;28;20022;-76
2021/01/01 05:34:13;;;;;;;8.27;4.90;;;2.10;99.90;;;;;;4966084;28;20034;-76
2021/01/01 05:36:47;;;;;;;10.40;5.90;;;2.10;99.90;;;;;;4965877;28;20033;-76
2021/01/01 05:39:18;;;;;;;9.43;5.15;;;2.20;99.90;;;;;;4967305;28;20747;-76
2021/01/01 05:41:46;;;;;;;11.17;6.40;;;2.20;99.90;;;;;;4967029;28;20026;-76
2021/01/01 05:44:28;;;;;;;13.35;8.15;;;2.20;99.90;;;;;;4961043;28;20281;-76
2021/01/01 05:46:58;;;;;;;11.50;7.32;;;2.10;99.90;;;;;;4965861;28;20493;-76
2021/01/01 05:49:29;;;;;;;10.40;6.20;;;2.10;99.90;;;;;;4965361;28;20035;-76
2021/01/01 05:52:23;;;;;;;9.88;5.97;;;2.10;99.90;;;;;;4967308;28;20410;-76
2021/01/01 05:54:59;;;;;;;18.05;10.40;;;2.00;99.90;;;;;;4967391;28;20375;-76
2021/01/01 05:57:39;;;;;;;13.50;7.38;;;2.00;99.90;;;;;;4966878;28;20105;-75
2021/01/01 06:00:06;;;;;;;11.05;7.53;;;1.90;99.90;;;;;;4961366;28;20077;-76
2021/01/01 06:02:37;;;;;;;13.15;7.75;;;2.00;99.90;;;;;;4964897;28;20097;-76
2021/01/01 06:05:06;;;;;;;13.23;8.70;;;2.00;99.90;;;;;;4966064;28;20027;-76
2021/01/01 06:07:38;;;;;;;16.58;10.25;;;2.00;99.90;;;;;;4968457;28;20030;-76
2021/01/01 06:10:09;;;;;;;10.85;6.95;;;1.90;99.90;;;;;;4967260;28;20440;-76
2021/01/01 06:12:37;;;;;;;14.38;9.35;;;2.00;99.90;;;;;;4967972;28;20086;-76
2021/01/01 06:15:08;;;;;;;11.90;7.80;;;2.00;99.90;;;;;;4970461;28;20377;-76
2021/01/01 06:17:48;;;;;;;11.57;8.07;;;2.00;99.90;;;;;;4969108;28;20096;-76
2021/01/01 06:20:18;;;;;;;10.23;7.28;;;2.10;99.90;;;;;;4970160;28;20357;-76
2021/01/01 06:23:08;;;;;;;13.48;8.43;;;2.10;99.90;;;;;;4965001;28;20077;-76
2021/01/01 06:25:34;;;;;;;14.70;8.35;;;2.10;99.90;;;;;;4968756;28;20239;-76
2021/01/01 06:28:01;;;;;;;15.50;8.40;;;2.00;99.90;;;;;;4969098;28;20041;-76
2021/01/01 06:30:28;;;;;;;13.63;8.88;;;2.10;99.90;;;;;;4970299;28;20442;-76
2021/01/01 06:32:54;;;;;;;15.25;11.00;;;2.00;99.90;;;;;;4969667;28;20035;-76
2021/01/01 06:35:21;;;;;;;21.23;13.48;;;2.10;99.90;;;;;;4969583;28;20055;-76
2021/01/01 06:37:55;;;;;;;18.70;11.38;;;2.10;99.90;;;;;;4969086;28;20410;-76
2021/01/01 06:40:20;;;;;;;14.85;10.10;;;2.10;99.90;;;;;;4967315;28;20399;-76
2021/01/01 06:42:50;;;;;;;15.32;10.82;;;2.10;99.90;;;;;;4967250;28;20207;-76
2021/01/01 06:45:45;;;;;;;18.38;11.07;;;2.20;99.90;;;;;;4969952;28;20038;-76
2021/01/01 06:48:33;;;;;;;14.30;9.40;;;2.10;99.90;;;;;;4963966;28;20027;-75
2021/01/01 06:50:59;;;;;;;14.82;10.10;;;2.20;99.90;;;;;;4967508;28;20379;-76
2021/01/01 06:53:29;;;;;;;14.52;10.18;;;2.20;99.90;;;;;;4966887;28;20078;-76
2021/01/01 06:56:11;;;;;;;20.42;12.20;;;2.20;99.90;;;;;;4967728;28;20047;-76
2021/01/01 06:58:37;;;;;;;14.15;9.00;;;2.20;99.90;;;;;;4966234;28;20027;-76
2021/01/01 07:01:04;;;;;;;14.82;9.93;;;2.20;99.90;;;;;;4967716;28;20042;-76
2021/01/01 07:03:40;;;;;;;12.80;9.15;;;2.20;99.90;;;;;;4966314;28;20031;-76
2021/01/01 07:06:05;;;;;;;14.35;10.38;;;2.10;99.90;;;;;;4967965;28;20042;-76
2021/01/01 07:08:42;;;;;;;15.05;9.30;;;2.10;99.90;;;;;;4967020;28;20022;-76
2021/01/01 07:11:23;;;;;;;14.65;9.40;;;2.10;99.90;;;;;;4967582;28;20754;-76
2021/01/01 07:13:52;;;;;;;17.80;11.85;;;2.10;99.90;;;;;;4968379;28;20069;-76
2021/01/01 07:16:21;;;;;;;18.73;12.13;;;2.10;99.90;;;;;;4960059;28;20038;-76
2021/01/01 07:18:48;;;;;;;30.83;17.60;;;2.00;99.90;;;;;;4968936;28;20042;-76
2021/01/01 07:21:15;;;;;;;18.13;12.55;;;2.00;99.90;;;;;;4967427;28;20502;-76
2021/01/01 07:23:43;;;;;;;18.58;13.02;;;2.00;99.90;;;;;;4969434;28;20054;-76
2021/01/01 07:26:09;;;;;;;20.52;13.48;;;2.10;99.90;;;;;;4967512;28;20497;-76
2021/01/01 07:28:38;;;;;;;19.02;12.75;;;2.10;99.90;;;;;;4968194;28;20041;-76
2021/01/01 07:31:04;;;;;;;17.95;12.90;;;2.10;99.90;;;;;;4968362;28;20046;-75
2021/01/01 07:33:31;;;;;;;22.08;13.65;;;2.10;99.90;;;;;;4968066;28;20038;-76
2021/01/01 07:36:02;;;;;;;19.63;14.38;;;2.10;99.90;;;;;;4968529;28;20058;-76
2021/01/01 07:38:30;;;;;;;18.83;13.32;;;2.00;99.90;;;;;;4967596;28;20023;-76
2021/01/01 07:40:56;;;;;;;18.92;14.15;;;2.10;99.90;;;;;;4968322;28;20494;-76
2021/01/01 07:43:22;;;;;;;18.15;12.60;;;2.10;99.90;;;;;;4965059;28;20058;-76
2021/01/01 07:45:48;;;;;;;17.33;12.75;;;2.10;99.90;;;;;;4968435;28;20038;-76
2021/01/01 07:48:15;;;;;;;15.95;11.75;;;2.10;99.90;;;;;;4968539;28;20030;-76
2021/01/01 07:50:40;;;;;;;18.88;13.20;;;2.20;99.90;;;;;;4968750;28;20047;-76
2021/01/01 07:53:08;;;;;;;17.50;12.32;;;2.20;99.90;;;;;;4968012;28;20056;-76
2021/01/01 07:55:34;;;;;;;18.88;13.88;;;2.20;99.90;;;;;;4968275;28;20125;-76
2021/01/01 07:58:08;;;;;;;14.40;10.63;;;2.20;99.90;;;;;;4966849;28;20109;-76
2021/01/01 08:00:35;;;;;;;19.60;12.85;;;2.20;99.90;;;;;;4968321;28;20565;-75
2021/01/01 08:03:02;;;;;;;14.95;11.02;;;2.20;99.90;;;;;;4967388;28;20034;-76
2021/01/01 08:05:28;;;;;;;15.63;11.63;;;2.20;99.90;;;;;;4968405;28;20035;-75
2021/01/01 08:07:54;;;;;;;15.98;11.85;;;2.20;99.90;;;;;;4967808;28;20401;-76
2021/01/01 08:10:33;;;;;;;15.10;10.07;;;2.20;99.90;;;;;;4967223;28;20097;-76
2021/01/01 08:12:58;;;;;;;17.08;11.25;;;2.10;99.90;;;;;;4968000;28;20066;-76
2021/01/01 08:15:28;;;;;;;15.85;11.85;;;2.10;99.90;;;;;;4966285;28;20070;-76
2021/01/01 08:17:53;;;;;;;17.40;11.75;;;2.10;99.90;;;;;;4967657;28;20035;-76
2021/01/01 08:20:19;;;;;;;26.75;15.77;;;2.20;99.90;;;;;;4966625;28;20034;-76
2021/01/01 08:22:51;;;;;;;20.48;13.07;;;2.20;99.90;;;;;;4968409;28;20293;-76
2021/01/01 08:25:17;;;;;;;18.63;13.32;;;2.20;99.90;;;;;;4965374;28;20110;-76
2021/01/01 08:27:44;;;;;;;20.85;14.07;;;2.20;99.90;;;;;;4968055;28;20035;-76
2021/01/01 08:30:11;;;;;;;23.52;15.27;;;2.20;99.90;;;;;;4965958;28;20039;-76
2021/01/01 08:32:39;;;;;;;21.67;15.43;;;2.20;99.90;;;;;;4968279;28;20423;-76
2021/01/01 08:35:08;;;;;;;18.85;13.57;;;2.20;99.90;;;;;;4966018;28;20061;-76
2021/01/01 08:37:34;;;;;;;18.83;13.25;;;2.10;99.90;;;;;;4968045;28;20091;-76
2021/01/01 08:40:07;;;;;;;17.63;13.13;;;2.20;99.90;;;;;;4967463;28;20038;-76
2021/01/01 08:42:35;;;;;;;24.70;14.55;;;2.20;99.90;;;;;;4966139;28;20030;-76
2021/01/01 08:45:05;;;;;;;19.38;14.35;;;2.20;99.90;;;;;;4967434;28;20492;-76
2021/01/01 08:47:48;;;;;;;27.98;15.73;;;2.20;99.90;;;;;;4963780;28;20567;-76
2021/01/01 08:50:27;;;;;;;22.52;14.00;;;2.20;99.90;;;;;;4963630;28;20034;-76
2021/01/01 08:53:03;;;;;;;19.70;12.52;;;2.10;99.90;;;;;;4966201;28;20043;-76
2021/01/01 08:55:30;;;;;;;18.33;14.15;;;2.10;99.90;;;;;;4967680;28;20650;-76
2021/01/01 08:58:16;;;;;;;22.90;17.20;;;2.10;99.90;;;;;;4966694;28;20062;-76
2021/01/01 09:00:46;;;;;;;24.83;18.02;;;2.10;99.90;;;;;;4966109;28;20101;-75
2021/01/01 09:03:21;;;;;;;27.75;18.48;;;2.10;99.90;;;;;;4966923;28;20142;-75
2021/01/01 09:05:51;;;;;;;21.80;16.25;;;2.20;99.90;;;;;;4965405;28;20026;-76
2021/01/01 09:08:20;;;;;;;20.40;12.73;;;2.30;99.90;;;;;;4967115;28;20390;-75
2021/01/01 09:10:48;;;;;;;23.75;14.13;;;2.30;99.90;;;;;;4966289;28;20034;-76
2021/01/01 09:13:29;;;;;;;19.95;14.00;;;2.30;99.90;;;;;;4967539;28;20019;-76
2021/01/01 09:16:04;;;;;;;17.80;12.85;;;2.20;99.90;;;;;;4965259;28;20043;-76
2021/01/01 09:18:30;;;;;;;22.35;13.45;;;2.20;99.90;;;;;;4966361;28;20046;-76
2021/01/01 09:21:11;;;;;;;34.85;19.05;;;2.20;99.90;;;;;;4967297;28;20070;-76
2021/01/01 09:23:41;;;;;;;22.20;14.65;;;2.10;99.90;;;;;;4966973;28;20376;-76
2021/01/01 09:26:08;;;;;;;26.27;17.77;;;2.10;99.90;;;;;;4966185;28;20066;-76
2021/01/01 09:28:35;;;;;;;22.30;14.50;;;2.20;99.90;;;;;;4965209;28;20031;-76
2021/01/01 09:31:01;;;;;;;21.08;15.00;;;2.30;99.90;;;;;;4966286;28;20038;-76
2021/01/01 09:33:27;;;;;;;28.25;18.98;;;2.30;99.90;;;;;;4966136;28;20355;-76
2021/01/01 09:35:52;;;;;;;25.60;18.48;;;2.30;99.90;;;;;;4966594;28;20086;-76
2021/01/01 09:38:18;;;;;;;24.83;17.63;;;2.20;99.90;;;;;;4965134;28;20033;-76
2021/01/01 09:40:44;;;;;;;26.20;18.80;;;2.20;99.90;;;;;;4966099;28;20066;-75
2021/01/01 09:43:13;;;;;;;32.35;19.20;;;2.20;99.90;;;;;;4966299;28;20478;-76
2021/01/01 09:45:39;;;;;;;25.95;17.52;;;2.30;99.90;;;;;;4966731;28;20072;-76
2021/01/01 09:48:05;;;;;;;28.25;20.73;;;2.30;99.90;;;;;;4966211;28;20398;-75
2021/01/01 09:50:31;;;;;;;30.77;23.10;;;2.40;99.90;;;;;;4966352;28;20357;-76
2021/01/01 09:52:57;;;;;;;36.10;24.98;;;2.50;99.90;;;;;;4965616;28;20400;-76
2021/01/01 09:55:23;;;;;;;29.10;20.45;;;2.60;99.90;;;;;;4966376;28;20448;-76
2021/01/01 09:57:49;;;;;;;30.75;20.08;;;2.50;99.90;;;;;;4965052;28;20062;-76
2021/01/01 10:00:16;;;;;;;25.65;20.05;;;2.50;99.90;;;;;;4966869;28;20038;-76
2021/01/01 10:02:42;;;;;;;26.33;18.33;;;2.60;99.90;;;;;;4962229;28;20039;-76
2021/01/01 10:05:09;;;;;;;22.35;16.90;;;2.70;99.90;;;;;;4966921;28;20117;-76
2021/01/01 10:07:36;;;;;;;29.00;19.02;;;2.60;99.90;;;;;;4965305;28;20344;-76
2021/01/01 10:10:03;;;;;;;29.08;19.02;;;2.60;99.90;;;;;;4966747;28;20150;-76
2021/01/01 10:12:29;;;;;;;29.20;20.63;;;2.60;99.90;;;;;;4965604;28;20043;-76
2021/01/01 10:14:55;;;;;;;29.33;21.52;;;2.50;99.90;;;;;;4966002;28;20053;-75
2021/01/01 10:17:22;;;;;;;28.95;21.25;;;2.50;99.90;;;;;;4965872;28;20046;-76
2021/01/01 10:19:48;;;;;;;27.08;20.17;;;2.50;99.90;;;;;;4963974;28;20118;-75
2021/01/01 10:22:14;;;;;;;26.15;19.23;;;2.60;99.90;;;;;;4964424;28;20409;-76
2021/01/01 10:24:39;;;;;;;29.35;16.00;;;2.60;99.90;;;;;;4963628;28;20027;-75
2021/01/01 10:27:05;;;;;;;49.97;37.22;;;2.50;99.90;;;;;;4964682;28;20459;-76
2021/01/01 10:29:30;;;;;;;43.00;33.53;;;2.50;99.90;;;;;;4962406;28;20478;-75
2021/01/01 10:32:04;;;;;;;37.15;26.65;;;2.60;99.90;;;;;;4965003;28;20046;-75
2021/01/01 10:34:29;;;;;;;29.55;17.20;;;2.70;99.90;;;;;;4962300;28;20049;-75
2021/01/01 10:36:55;;;;;;;25.15;17.75;;;2.70;99.90;;;;;;4964086;28;20039;-75
2021/01/01 10:39:21;;;;;;;28.13;17.60;;;2.70;99.90;;;;;;4963387;28;20039;-75
2021/01/01 10:41:48;;;;;;;19.35;13.82;;;2.80;99.90;;;;;;4962638;28;20031;-75
2021/01/01 10:44:14;;;;;;;22.20;14.88;;;2.80;99.90;;;;;;4963264;28;20027;-75
2021/01/01 10:46:40;;;;;;;20.80;13.23;;;2.80;99.90;;;;;;4962221;28;20043;-75
2021/01/01 10:49:06;;;;;;;20.70;12.57;;;2.70;99.90;;;;;;4963130;28;20298;-75
2021/01/01 10:51:32;;;;;;;20.45;13.43;;;2.70;99.90;;;;;;4963301;28;20047;-75
2021/01/01 10:53:58;;;;;;;22.42;14.95;;;2.70;99.90;;;;;;4966686;28;20035;-75
2021/01/01 10:56:28;;;;;;;24.27;14.73;;;2.70;99.90;;;;;;4966569;28;20074;-75
2021/01/01 10:58:54;;;;;;;20.33;14.23;;;2.70;99.90;;;;;;4966562;28;20064;-75
2021/01/01 11:01:24;;;;;;;20.20;12.70;;;2.80;99.90;;;;;;4965876;28;20039;-75
2021/01/01 11:03:50;;;;;;;20.15;11.90;;;2.70;99.90;;;;;;4966507;28;20093;-76
2021/01/01 11:06:17;;;;;;;22.23;16.13;;;2.70;99.90;;;;;;4965387;28;20485;-76
2021/01/01 11:08:43;;;;;;;18.85;13.05;;;2.70;99.90;;;;;;4967711;28;20478;-75
2021/01/01 11:11:11;;;;;;;22.95;14.43;;;2.70;99.90;;;;;;4966910;28;20538;-75
2021/01/01 11:13:41;;;;;;;21.23;14.50;;;2.80;99.90;;;;;;4963250;28;20030;-75
2021/01/01 12:20:37;;;;;;;14.52;10.52;;;2.90;99.90;;;;;;4936483;28;20089;-75
2021/01/01 12:25:39;;;;;;;23.15;13.18;;;2.90;99.90;;;;;;4965843;28;20073;-75
2021/01/01 12:28:08;;;;;;;17.02;11.65;;;3.00;99.90;;;;;;4966325;28;20031;-76
2021/01/01 12:30:35;;;;;;;18.17;12.10;;;3.00;99.90;;;;;;4948857;28;20445;-75
2021/01/01 12:33:02;;;;;;;19.85;14.00;;;3.00;99.90;;;;;;4967454;28;20505;-75
2021/01/01 12:35:28;;;;;;;20.52;13.60;;;3.10;99.90;;;;;;4965410;28;20055;-75
2021/01/01 12:38:01;;;;;;;18.77;12.10;;;3.10;99.90;;;;;;4965732;28;20046;-76
2021/01/01 12:40:28;;;;;;;16.52;12.15;;;3.00;99.90;;;;;;4966522;28;20034;-76
2021/01/01 12:42:54;;;;;;;15.90;10.38;;;3.10;99.90;;;;;;4967251;28;20477;-75
2021/01/01 12:45:20;;;;;;;17.42;11.45;;;3.10;99.90;;;;;;4966277;28;20031;-75
2021/01/01 12:47:46;;;;;;;13.25;9.55;;;3.10;99.90;;;;;;4965845;28;20034;-75
2021/01/01 12:50:12;;;;;;;13.85;10.27;;;3.10;99.90;;;;;;4966558;28;20030;-76
2021/01/01 12:52:37;;;;;;;16.90;11.52;;;3.00;99.90;;;;;;4965881;28;20042;-75
2021/01/01 12:55:03;;;;;;;17.30;10.68;;;3.00;99.90;;;;;;4965495;28;20065;-76
2021/01/01 12:57:29;;;;;;;15.55;9.88;;;3.10;99.90;;;;;;4965727;28;20480;-76
2021/01/01 12:59:55;;;;;;;17.50;11.32;;;3.20;99.90;;;;;;4965546;28;20035;-76
2021/01/01 13:02:20;;;;;;;15.27;11.43;;;3.10;99.90;;;;;;4966066;28;20070;-76
2021/01/01 13:04:46;;;;;;;22.88;15.35;;;3.20;99.90;;;;;;4965425;28;20033;-76
2021/01/01 13:07:12;;;;;;;15.75;10.10;;;3.10;99.90;;;;;;4959898;28;20027;-76
2021/01/01 13:09:37;;;;;;;21.10;12.80;;;3.20;99.90;;;;;;4965906;28;20027;-76
2021/01/01 13:12:03;;;;;;;13.57;8.40;;;3.20;99.90;;;;;;4965386;28;20035;-75
2021/01/01 13:14:29;;;;;;;15.90;10.43;;;3.20;99.90;;;;;;4965274;28;20035;-76
2021/01/01 13:16:55;;;;;;;15.55;11.27;;;3.20;99.90;;;;;;4963949;28;20091;-75
2021/01/01 13:19:21;;;;;;;16.10;9.98;;;3.20;99.90;;;;;;4965815;28;20038;-76
2021/01/01 13:21:47;;;;;;;13.13;9.68;;;3.00;99.90;;;;;;4965439;28;20054;-76
2021/01/01 13:24:12;;;;;;;15.88;10.75;;;3.10;99.90;;;;;;4965449;28;20023;-76
2021/01/01 13:26:38;;;;;;;18.42;11.05;;;3.20;99.90;;;;;;4965262;28;20034;-76
2021/01/01 13:29:04;;;;;;;16.60;11.25;;;3.30;99.90;;;;;;4967035;28;20034;-75
2021/01/01 13:31:38;;;;;;;17.35;12.02;;;3.30;99.90;;;;;;4965024;28;20042;-76
2021/01/01 13:34:05;;;;;;;16.27;11.70;;;3.40;99.90;;;;;;4965494;28;20046;-76
2021/01/01 13:36:31;;;;;;;16.70;12.30;;;3.30;99.90;;;;;;4964922;28;20045;-76
2021/01/01 13:39:00;;;;;;;16.13;11.90;;;3.30;99.90;;;;;;4965688;28;20053;-76
2021/01/01 13:41:25;;;;;;;15.65;11.63;;;3.30;99.90;;;;;;4964176;28;20066;-76
2021/01/01 13:43:55;;;;;;;14.60;10.75;;;3.30;99.90;;;;;;4964237;28;20482;-76
2021/01/01 13:46:26;;;;;;;16.65;10.57;;;3.40;99.90;;;;;;4962545;28;20487;-75
2021/01/01 13:48:53;;;;;;;15.48;9.30;;;3.30;99.90;;;;;;4964203;28;20031;-75
2021/01/01 13:51:29;;;;;;;13.68;9.32;;;3.30;99.90;;;;;;4964442;28;20217;-76
2021/01/01 13:53:55;;;;;;;14.88;9.30;;;3.30;99.90;;;;;;4965235;28;20042;-75